Time;durP1;ratioP1;P1;durP2;ratioP2;P2;SDS_P1;SDS_P2;PMS_P1;PMS_P2;Temp;Humidity;BMP_temperature;BMP_pressure;BME280_temperature;BME280_humidity;BME280_pressure;Samples;Min_cycle;Max_cycle;Signal;HPM_P1;HPM_P2
2023/06/29 00:00:58;;;;;;;4.15;1.90;;;19.70;49.20;;;;;;6183719;23;20021;-76
2023/06/29 00:03:29;;;;;;;2.30;2.10;;;19.70;49.30;;;;;;6184077;23;20071;-76
2023/06/29 00:05:58;;;;;;;3.42;2.08;;;19.70;49.40;;;;;;6183528;23;20004;-76
2023/06/29 00:08:36;;;;;;;4.07;1.73;;;19.70;49.40;;;;;;6157488;23;20056;-76
2023/06/29 00:11:07;;;;;;;3.58;2.13;;;19.70;49.70;;;;;;6184330;23;20036;-76
2023/06/29 00:13:38;;;;;;;4.25;2.08;;;19.70;49.90;;;;;;6158957;23;20055;-76
2023/06/29 00:16:09;;;;;;;3.53;2.40;;;19.60;49.70;;;;;;6185438;23;20008;-76
2023/06/29 00:18:40;;;;;;;2.83;1.80;;;19.60;50.30;;;;;;6185356;23;19989;-76
2023/06/29 00:21:11;;;;;;;4.13;2.20;;;19.60;50.90;;;;;;6185624;23;19993;-75
2023/06/29 00:23:42;;;;;;;4.32;1.92;;;19.50;50.20;;;;;;6159116;23;20000;-76
2023/06/29 00:26:14;;;;;;;8.15;2.17;;;19.50;50.10;;;;;;6185210;23;20000;-76
2023/06/29 00:28:45;;;;;;;3.45;2.08;;;19.50;50.20;;;;;;6185608;23;20051;-76
2023/06/29 00:31:16;;;;;;;3.67;2.05;;;19.50;50.70;;;;;;6185473;23;20005;-76
2023/06/29 00:33:47;;;;;;;8.10;2.28;;;19.40;51.00;;;;;;6159154;23;20362;-76
2023/06/29 00:36:15;;;;;;;4.80;2.20;;;19.40;51.20;;;;;;6185973;23;20415;-76
2023/06/29 00:38:50;;;;;;;4.10;2.00;;;19.40;50.80;;;;;;6184932;23;19993;-75
2023/06/29 00:41:21;;;;;;;3.03;2.05;;;19.40;51.30;;;;;;6185738;23;20020;-76
2023/06/29 00:43:52;;;;;;;3.60;2.55;;;19.30;50.80;;;;;;6185362;23;20020;-75
2023/06/29 00:46:27;;;;;;;2.85;2.42;;;19.30;51.00;;;;;;6185132;23;20346;-76
2023/06/29 00:48:55;;;;;;;3.63;2.40;;;19.20;50.90;;;;;;6185331;23;19993;-76
2023/06/29 00:51:31;;;;;;;2.67;1.80;;;19.20;50.60;;;;;;6185207;23;20005;-75
2023/06/29 00:54:03;;;;;;;2.70;2.00;;;19.20;50.80;;;;;;6185629;23;20211;-75
2023/06/29 00:56:34;;;;;;;4.72;2.35;;;19.20;51.30;;;;;;6159214;23;20037;-76
2023/06/29 00:59:19;;;;;;;5.75;2.40;;;19.10;51.40;;;;;;6185393;23;20052;-75
2023/06/29 01:01:59;;;;;;;5.60;2.40;;;19.10;51.70;;;;;;6185446;23;20056;-76
2023/06/29 01:04:25;;;;;;;4.32;1.95;;;19.10;51.70;;;;;;6184998;23;20404;-75
2023/06/29 01:07:13;;;;;;;4.47;2.10;;;19.10;51.50;;;;;;6185290;23;20417;-75
2023/06/29 01:09:44;;;;;;;4.75;1.92;;;19.00;51.50;;;;;;6185328;23;19997;-76
2023/06/29 01:12:16;;;;;;;2.83;2.00;;;19.00;51.40;;;;;;6158765;23;20005;-76
2023/06/29 01:14:49;;;;;;;2.75;2.08;;;18.90;51.10;;;;;;6158734;23;20001;-76
2023/06/29 01:17:20;;;;;;;6.22;2.22;;;18.90;51.60;;;;;;6158991;23;19997;-76
2023/06/29 01:19:50;;;;;;;4.40;2.10;;;18.90;51.90;;;;;;6185229;23;19993;-76
2023/06/29 01:22:32;;;;;;;4.00;2.22;;;18.90;52.20;;;;;;6158526;23;20009;-76
2023/06/29 01:25:04;;;;;;;3.80;1.90;;;18.80;52.20;;;;;;6184787;23;19993;-76
2023/06/29 01:27:29;;;;;;;2.88;2.20;;;18.80;52.30;;;;;;6185617;23;20001;-76
2023/06/29 01:30:00;;;;;;;2.40;1.90;;;18.80;52.30;;;;;;6185060;23;19993;-76
2023/06/29 01:32:31;;;;;;;3.10;2.20;;;18.80;52.30;;;;;;6159035;23;20003;-76
2023/06/29 01:35:07;;;;;;;2.40;1.90;;;18.80;52.30;;;;;;6185274;23;19997;-76
2023/06/29 01:37:49;;;;;;;2.90;1.98;;;18.70;52.30;;;;;;6158880;23;20418;-76
2023/06/29 01:40:18;;;;;;;3.00;1.85;;;18.70;52.60;;;;;;6184980;23;20005;-75
2023/06/29 01:42:50;;;;;;;4.32;2.40;;;18.70;52.40;;;;;;6184799;23;19993;-76
2023/06/29 01:45:18;;;;;;;6.43;2.35;;;18.70;52.90;;;;;;6158773;23;20421;-76
2023/06/29 01:47:49;;;;;;;3.08;2.10;;;18.70;53.10;;;;;;6184990;23;19993;-76
2023/06/29 01:50:21;;;;;;;4.32;1.92;;;18.70;53.30;;;;;;6158662;23;20008;-76
2023/06/29 01:52:46;;;;;;;3.25;2.15;;;18.60;53.40;;;;;;6184709;23;20353;-75
2023/06/29 01:55:12;;;;;;;5.30;2.70;;;18.60;53.00;;;;;;6184545;23;19993;-75
2023/06/29 01:57:43;;;;;;;2.63;2.00;;;18.60;53.90;;;;;;6184759;23;20028;-76
2023/06/29 02:00:15;;;;;;;3.45;2.25;;;18.50;53.70;;;;;;6184946;23;20362;-76
2023/06/29 02:02:46;;;;;;;3.70;2.15;;;18.50;53.40;;;;;;6158461;23;20004;-76
2023/06/29 02:05:12;;;;;;;2.58;2.13;;;18.50;53.90;;;;;;6184865;23;19993;-75
2023/06/29 02:07:43;;;;;;;4.63;2.17;;;18.50;53.70;;;;;;6184639;23;20001;-75
2023/06/29 02:10:15;;;;;;;3.22;2.30;;;18.40;53.70;;;;;;6158293;23;20001;-75
2023/06/29 02:12:43;;;;;;;2.40;1.90;;;18.40;53.50;;;;;;6184079;23;19997;-75
2023/06/29 02:15:14;;;;;;;3.05;2.00;;;18.40;53.40;;;;;;6184212;23;20005;-76
2023/06/29 02:17:42;;;;;;;4.05;2.22;;;18.40;53.70;;;;;;6184441;23;19993;-76
2023/06/29 02:20:13;;;;;;;5.18;2.38;;;18.40;53.80;;;;;;6184421;23;20020;-76
2023/06/29 02:22:44;;;;;;;3.30;2.15;;;18.30;53.90;;;;;;6184928;23;20001;-76
2023/06/29 02:25:15;;;;;;;3.60;2.05;;;18.30;54.30;;;;;;6184444;23;20124;-76
2023/06/29 02:27:45;;;;;;;5.90;2.38;;;18.30;54.70;;;;;;6185093;23;20043;-75
2023/06/29 02:30:16;;;;;;;4.88;2.30;;;18.30;54.60;;;;;;6184708;23;20289;-76
2023/06/29 02:32:44;;;;;;;5.50;2.45;;;18.20;54.70;;;;;;6184324;23;20095;-75
2023/06/29 02:35:12;;;;;;;3.47;2.40;;;18.20;54.40;;;;;;6184289;23;19997;-76
2023/06/29 02:37:43;;;;;;;6.15;2.45;;;18.20;54.70;;;;;;6184540;23;19993;-76
2023/06/29 02:40:12;;;;;;;3.17;2.40;;;18.20;54.90;;;;;;6184765;23;20009;-76
2023/06/29 02:42:44;;;;;;;5.40;2.45;;;18.20;54.70;;;;;;6158212;23;20432;-76
2023/06/29 02:45:15;;;;;;;3.53;2.47;;;18.10;54.70;;;;;;6158107;23;19997;-75
2023/06/29 02:47:46;;;;;;;4.07;2.13;;;18.10;54.60;;;;;;6183970;23;20286;-76
2023/06/29 02:50:18;;;;;;;5.03;2.22;;;18.10;54.80;;;;;;6184519;23;20004;-75
2023/06/29 02:52:52;;;;;;;4.60;2.50;;;18.00;55.30;;;;;;6157758;23;20008;-76
2023/06/29 02:55:31;;;;;;;4.18;2.40;;;18.00;54.90;;;;;;6184493;23;19989;-76
2023/06/29 02:58:02;;;;;;;2.97;2.28;;;18.00;55.00;;;;;;6158129;23;20005;-75
2023/06/29 03:00:28;;;;;;;2.58;2.20;;;18.00;55.00;;;;;;6184555;23;20003;-76
2023/06/29 03:03:02;;;;;;;3.58;2.60;;;18.00;55.10;;;;;;6184644;23;20229;-75
2023/06/29 03:05:35;;;;;;;2.85;2.38;;;17.90;55.10;;;;;;6184310;23;19997;-76
2023/06/29 03:08:06;;;;;;;2.90;2.47;;;17.90;55.10;;;;;;6184911;23;20301;-76
2023/06/29 03:10:37;;;;;;;5.55;2.95;;;17.90;55.30;;;;;;6184160;23;20008;-75
2023/06/29 03:13:08;;;;;;;3.85;2.85;;;17.90;55.50;;;;;;6184774;23;19993;-76
2023/06/29 03:15:34;;;;;;;4.32;2.65;;;17.90;55.70;;;;;;6184176;23;20294;-76
2023/06/29 03:18:05;;;;;;;4.72;2.58;;;17.90;55.30;;;;;;6157865;23;20004;-76
2023/06/29 03:20:36;;;;;;;3.75;2.40;;;17.90;55.50;;;;;;6183920;23;20008;-76
2023/06/29 03:23:05;;;;;;;3.63;2.65;;;17.90;56.00;;;;;;6183944;23;20318;-76
2023/06/29 03:25:36;;;;;;;3.55;2.20;;;17.90;55.70;;;;;;6184029;23;19989;-76
2023/06/29 03:28:04;;;;;;;3.58;2.33;;;17.90;55.60;;;;;;6184253;23;19993;-76
2023/06/29 03:30:35;;;;;;;4.03;2.40;;;17.90;55.60;;;;;;6184091;23;20005;-76
2023/06/29 03:33:06;;;;;;;4.40;2.38;;;17.90;55.70;;;;;;6183930;23;20000;-76
2023/06/29 03:35:40;;;;;;;2.75;2.30;;;18.00;55.60;;;;;;6157790;23;20071;-76
2023/06/29 03:38:11;;;;;;;4.90;2.67;;;18.00;55.40;;;;;;6184043;23;19989;-75
2023/06/29 03:40:42;;;;;;;5.63;2.40;;;18.00;55.70;;;;;;6184458;23;20009;-76
2023/06/29 03:43:16;;;;;;;4.15;2.60;;;18.00;55.70;;;;;;6183891;23;20005;-76
2023/06/29 03:45:46;;;;;;;4.90;2.50;;;18.10;55.60;;;;;;6184734;23;20306;-76
2023/06/29 03:48:27;;;;;;;2.95;2.20;;;18.10;55.60;;;;;;6186523;23;20000;-76
2023/06/29 03:51:04;;;;;;;2.83;2.15;;;18.10;55.70;;;;;;6186141;23;20001;-75
2023/06/29 03:53:35;;;;;;;6.50;2.45;;;18.10;55.60;;;;;;6159491;23;19993;-75
2023/06/29 03:56:01;;;;;;;5.07;2.30;;;18.20;55.60;;;;;;6159661;23;20509;-75
2023/06/29 03:58:32;;;;;;;3.15;2.38;;;18.20;55.50;;;;;;6185633;23;19997;-76
2023/06/29 04:01:00;;;;;;;4.80;2.78;;;18.20;55.40;;;;;;6159556;23;20051;-76
2023/06/29 04:03:32;;;;;;;8.05;2.53;;;18.20;55.70;;;;;;6185601;23;19997;-75
2023/06/29 04:06:06;;;;;;;3.75;2.25;;;18.30;55.60;;;;;;6159230;23;19997;-76
2023/06/29 04:08:35;;;;;;;4.10;1.92;;;18.30;55.60;;;;;;6185631;23;19993;-76
2023/06/29 04:11:12;;;;;;;3.35;2.28;;;18.30;55.40;;;;;;6185302;23;20001;-76
2023/06/29 04:13:43;;;;;;;3.33;2.50;;;18.30;55.50;;;;;;6159247;23;20428;-76
2023/06/29 04:16:25;;;;;;;3.17;2.10;;;18.40;55.40;;;;;;6158887;23;20414;-76
2023/06/29 04:18:56;;;;;;;7.22;3.88;;;18.40;55.40;;;;;;6185736;23;19997;-76
2023/06/29 04:21:24;;;;;;;9.07;3.22;;;18.50;55.30;;;;;;6185564;23;20028;-76
2023/06/29 04:23:55;;;;;;;5.75;2.63;;;18.50;55.30;;;;;;6185634;23;20024;-76
2023/06/29 04:26:27;;;;;;;4.32;2.90;;;18.50;55.30;;;;;;6185724;23;20004;-76
2023/06/29 04:29:05;;;;;;;5.13;2.45;;;18.60;55.20;;;;;;6184308;23;20000;-76
2023/06/29 04:31:36;;;;;;;5.10;2.40;;;18.60;55.10;;;;;;6185601;23;20248;-76
2023/06/29 04:34:08;;;;;;;4.68;2.42;;;18.70;55.10;;;;;;6159292;23;19997;-76
2023/06/29 04:36:36;;;;;;;4.07;2.47;;;18.70;55.00;;;;;;6185657;23;20414;-76
2023/06/29 04:39:08;;;;;;;4.10;2.25;;;18.70;54.90;;;;;;6185028;23;20005;-76
2023/06/29 04:41:36;;;;;;;3.00;2.15;;;18.80;54.90;;;;;;6185948;23;19997;-76
2023/06/29 04:44:10;;;;;;;5.47;2.47;;;18.80;54.80;;;;;;6185514;23;20005;-76
2023/06/29 04:46:45;;;;;;;5.97;2.45;;;18.80;54.70;;;;;;6159257;23;20002;-76
2023/06/29 04:49:18;;;;;;;4.57;2.33;;;18.90;54.60;;;;;;6185246;23;20020;-76
2023/06/29 04:51:55;;;;;;;3.42;2.22;;;18.90;54.50;;;;;;6158817;23;20015;-76
2023/06/29 04:54:27;;;;;;;4.03;2.17;;;19.00;54.40;;;;;;6185538;23;20057;-77
2023/06/29 04:56:59;;;;;;;6.72;2.13;;;19.00;54.40;;;;;;6158748;23;20001;-75
2023/06/29 04:59:27;;;;;;;4.55;2.47;;;19.10;54.20;;;;;;6159026;23;20287;-75
2023/06/29 05:01:55;;;;;;;3.67;2.50;;;19.10;54.10;;;;;;6184976;23;19997;-76
2023/06/29 05:04:21;;;;;;;5.18;2.20;;;19.20;54.10;;;;;;6185140;23;20025;-76
2023/06/29 05:06:52;;;;;;;4.78;2.55;;;19.20;54.10;;;;;;6184421;23;19993;-76
2023/06/29 05:09:23;;;;;;;5.18;2.78;;;19.30;53.90;;;;;;6183952;23;19993;-77
2023/06/29 05:11:52;;;;;;;6.40;2.70;;;19.30;53.80;;;;;;6184131;23;20016;-76
2023/06/29 05:14:24;;;;;;;4.15;2.45;;;19.40;53.80;;;;;;6158954;23;20005;-76
2023/06/29 05:16:54;;;;;;;7.95;2.47;;;19.40;53.90;;;;;;6185097;23;19997;-77
2023/06/29 05:19:22;;;;;;;12.65;2.60;;;19.50;53.90;;;;;;6184823;23;20004;-77
2023/06/29 05:21:48;;;;;;;5.25;1.90;;;19.50;53.90;;;;;;6158914;23;20007;-76
2023/06/29 05:24:20;;;;;;;5.03;2.50;;;19.60;53.90;;;;;;6185074;23;20001;-76
2023/06/29 05:26:48;;;;;;;8.15;2.47;;;19.60;53.60;;;;;;6185081;23;20283;-76
2023/06/29 05:29:19;;;;;;;4.78;2.60;;;19.70;53.60;;;;;;6183846;23;20020;-76
2023/06/29 05:31:51;;;;;;;4.72;2.75;;;19.70;53.50;;;;;;6184292;23;20009;-76
2023/06/29 05:34:24;;;;;;;8.45;4.18;;;19.80;53.10;;;;;;6184634;23;19989;-76
2023/06/29 05:37:04;;;;;;;5.30;3.50;;;19.80;52.50;;;;;;6185545;23;20018;-73
2023/06/29 05:39:30;;;;;;;6.25;3.17;;;19.90;52.30;;;;;;6186548;23;20001;-78
2023/06/29 05:42:16;;;;;;;7.72;3.60;;;19.90;52.50;;;;;;6156820;23;20008;-78
2023/06/29 05:44:52;;;;;;;6.60;3.55;;;20.00;52.50;;;;;;6182773;23;20064;-78
2023/06/29 05:47:20;;;;;;;7.40;3.85;;;20.00;52.20;;;;;;6158822;23;20023;-78
2023/06/29 05:49:51;;;;;;;6.15;3.63;;;20.10;52.00;;;;;;6158766;23;20410;-78
2023/06/29 05:52:22;;;;;;;8.57;4.45;;;20.10;51.90;;;;;;6185262;23;20052;-78
2023/06/29 05:54:53;;;;;;;10.05;5.18;;;20.20;52.00;;;;;;6185094;23;20076;-78
2023/06/29 05:57:27;;;;;;;14.27;5.53;;;20.30;51.70;;;;;;6158648;23;20001;-77
2023/06/29 05:59:59;;;;;;;;;;;20.30;51.50;;;;;;6159403;23;20004;-78
2023/06/29 06:02:30;;;;;;;7.15;4.68;;;20.40;51.80;;;;;;6184813;23;19904;-78
2023/06/29 06:05:01;;;;;;;12.70;6.50;;;20.50;51.40;;;;;;6184556;23;20401;-77
2023/06/29 06:07:45;;;;;;;10.60;4.88;;;20.60;51.30;;;;;;6185021;23;20056;-78
2023/06/29 06:10:25;;;;;;;13.80;5.35;;;20.60;51.10;;;;;;6184405;23;20024;-78
2023/06/29 06:12:58;;;;;;;10.05;5.13;;;20.70;50.90;;;;;;6185119;23;19997;-78
2023/06/29 06:15:30;;;;;;;10.77;5.65;;;20.80;50.90;;;;;;6185327;23;20004;-78
2023/06/29 06:18:12;;;;;;;14.10;5.10;;;20.80;50.70;;;;;;6185387;23;20003;-78
2023/06/29 06:20:56;;;;;;;13.85;6.18;;;20.90;50.60;;;;;;6184728;23;20001;-78
2023/06/29 06:23:33;;;;;;;13.38;6.95;;;21.00;50.70;;;;;;6158698;23;20004;-78
2023/06/29 06:26:09;;;;;;;18.50;7.18;;;21.00;50.60;;;;;;6158344;23;20004;-77
2023/06/29 06:28:40;;;;;;;18.35;6.57;;;21.10;50.50;;;;;;6184653;23;20004;-78
2023/06/29 06:31:22;;;;;;;15.73;7.22;;;21.20;50.50;;;;;;6184849;23;20005;-78
2023/06/29 06:34:06;;;;;;;19.52;7.53;;;21.30;50.40;;;;;;6184796;23;20001;-78
2023/06/29 06:36:35;;;;;;;14.60;7.00;;;21.30;50.20;;;;;;6157336;23;20342;-78
2023/06/29 06:39:04;;;;;;;14.73;6.38;;;21.40;50.50;;;;;;6184651;23;20008;-77
2023/06/29 06:41:35;;;;;;;16.25;7.28;;;21.50;50.50;;;;;;6158290;23;20004;-78
2023/06/29 06:44:04;;;;;;;24.35;8.07;;;21.60;50.10;;;;;;6184526;23;20305;-78
2023/06/29 06:46:39;;;;;;;21.63;6.68;;;21.60;49.70;;;;;;6158677;23;20385;-78
2023/06/29 06:49:10;;;;;;;15.88;7.22;;;21.70;49.70;;;;;;6184367;23;20425;-78
2023/06/29 06:51:38;;;;;;;20.75;6.97;;;21.80;49.70;;;;;;6158109;23;20007;-77
2023/06/29 06:54:10;;;;;;;20.70;7.65;;;21.80;49.70;;;;;;6158187;23;20309;-78
2023/06/29 06:56:41;;;;;;;15.88;7.05;;;21.80;49.20;;;;;;6158170;23;20405;-76
2023/06/29 06:59:13;;;;;;;20.30;7.32;;;21.90;48.90;;;;;;6184965;23;19989;-78
2023/06/29 07:01:45;;;;;;;16.65;6.32;;;22.00;48.80;;;;;;6184575;23;20365;-78
2023/06/29 07:04:19;;;;;;;20.58;7.68;;;22.10;48.60;;;;;;6158295;23;20456;-78
2023/06/29 07:06:47;;;;;;;18.33;7.18;;;22.10;48.30;;;;;;6158272;23;19997;-78
2023/06/29 07:09:33;;;;;;;17.33;6.28;;;22.20;48.20;;;;;;6184340;23;20321;-77
2023/06/29 07:12:15;;;;;;;17.17;7.18;;;22.20;47.20;;;;;;6184424;23;20130;-78
2023/06/29 07:14:46;;;;;;;16.25;7.70;;;22.30;47.60;;;;;;6157302;23;20310;-78
2023/06/29 07:17:26;;;;;;;15.98;6.70;;;22.40;47.30;;;;;;6185221;23;20068;-78
2023/06/29 07:20:05;;;;;;;13.63;6.80;;;22.40;47.50;;;;;;6186696;23;19993;-78
2023/06/29 07:22:38;;;;;;;13.40;6.90;;;22.50;47.50;;;;;;6192403;23;20348;-78
2023/06/29 07:25:11;;;;;;;17.90;7.50;;;22.60;47.10;;;;;;6193819;23;19993;-78
2023/06/29 07:27:42;;;;;;;17.10;8.52;;;22.70;46.80;;;;;;6168217;23;20012;-78
2023/06/29 07:30:27;;;;;;;19.52;8.13;;;22.70;46.20;;;;;;6168115;23;20382;-78
2023/06/29 07:32:58;;;;;;;15.80;8.30;;;22.80;45.80;;;;;;6192802;23;20017;-77
2023/06/29 07:35:29;;;;;;;16.35;8.52;;;22.80;46.70;;;;;;6161501;23;20008;-77
2023/06/29 07:38:00;;;;;;;17.27;9.02;;;22.90;46.50;;;;;;6186556;23;19997;-77
2023/06/29 07:40:32;;;;;;;17.92;8.55;;;23.00;46.50;;;;;;6186638;23;20005;-77
2023/06/29 07:43:00;;;;;;;16.35;8.10;;;23.00;46.80;;;;;;6186379;23;19997;-78
2023/06/29 07:45:38;;;;;;;17.35;9.73;;;23.20;46.80;;;;;;6185937;23;19997;-77
2023/06/29 07:48:06;;;;;;;23.10;9.68;;;23.20;45.80;;;;;;6186427;23;19997;-78
2023/06/29 07:50:38;;;;;;;12.57;8.30;;;23.30;46.00;;;;;;6186122;23;20032;-78
2023/06/29 07:53:07;;;;;;;14.50;7.05;;;23.30;45.50;;;;;;6159880;23;20088;-77
2023/06/29 07:55:37;;;;;;;17.65;7.78;;;23.40;44.70;;;;;;6159688;23;20134;-77
2023/06/29 07:58:08;;;;;;;16.95;8.45;;;23.50;44.50;;;;;;6186350;23;20343;-77
2023/06/29 08:00:40;;;;;;;11.63;7.47;;;23.60;43.50;;;;;;6159858;23;20429;-78
2023/06/29 08:03:10;;;;;;;16.55;8.07;;;23.60;43.50;;;;;;6186208;23;19993;-77
2023/06/29 08:05:49;;;;;;;13.32;6.20;;;23.70;42.20;;;;;;6159698;23;20305;-77
2023/06/29 08:08:27;;;;;;;8.70;5.63;;;23.70;42.80;;;;;;6159536;23;20001;-77
2023/06/29 08:11:08;;;;;;;10.25;5.72;;;23.80;43.10;;;;;;6185739;23;20488;-78
2023/06/29 08:13:40;;;;;;;17.25;7.60;;;23.90;43.60;;;;;;6158490;23;20513;-78
2023/06/29 08:16:22;;;;;;;17.13;7.28;;;23.90;42.10;;;;;;6186205;23;20016;-78
2023/06/29 08:18:48;;;;;;;12.57;5.85;;;24.00;41.60;;;;;;6185768;23;20421;-77
2023/06/29 08:21:36;;;;;;;15.27;6.80;;;24.00;42.30;;;;;;6185632;23;20003;-78
2023/06/29 08:24:15;;;;;;;13.40;6.05;;;24.10;40.00;;;;;;6186060;23;20029;-78
2023/06/29 08:26:43;;;;;;;14.05;5.20;;;24.10;40.80;;;;;;6158628;23;19993;-77
2023/06/29 08:29:22;;;;;;;10.38;4.47;;;24.20;41.40;;;;;;6186346;23;20001;-77
2023/06/29 08:31:53;;;;;;;12.02;4.70;;;24.20;40.20;;;;;;6186078;23;20000;-76
2023/06/29 08:34:24;;;;;;;12.23;5.25;;;24.40;40.50;;;;;;6185746;23;20080;-76
2023/06/29 08:37:00;;;;;;;10.82;4.30;;;24.40;39.20;;;;;;6186202;23;20401;-76
2023/06/29 08:39:34;;;;;;;7.75;3.92;;;24.40;39.10;;;;;;6159261;23;20009;-75
2023/06/29 08:42:05;;;;;;;;;;;24.50;39.80;;;;;;6186608;23;20001;-77
2023/06/29 08:44:55;;;;;;;12.02;5.05;;;24.60;41.00;;;;;;6186134;23;19896;-77
2023/06/29 08:47:28;;;;;;;10.85;4.88;;;24.70;39.10;;;;;;6185866;23;19989;-77
2023/06/29 08:50:00;;;;;;;12.90;5.57;;;24.80;39.60;;;;;;6185926;23;19993;-76
2023/06/29 08:52:32;;;;;;;20.08;7.82;;;24.80;38.80;;;;;;6185229;23;19993;-76
2023/06/29 08:55:04;;;;;;;18.05;8.23;;;24.90;38.60;;;;;;6159375;23;20310;-76
2023/06/29 08:57:49;;;;;;;11.27;6.18;;;24.90;38.30;;;;;;6159312;23;20356;-77
2023/06/29 09:00:22;;;;;;;11.95;5.47;;;25.00;38.70;;;;;;6185588;23;20000;-77
2023/06/29 09:02:57;;;;;;;12.95;5.25;;;25.10;38.60;;;;;;6159209;23;20076;-76
2023/06/29 09:05:28;;;;;;;12.88;4.88;;;25.10;38.50;;;;;;6159345;23;20370;-76
2023/06/29 09:07:57;;;;;;;15.05;5.93;;;25.30;38.80;;;;;;6185233;23;20056;-76
2023/06/29 09:10:36;;;;;;;9.63;4.70;;;25.20;36.70;;;;;;6159111;23;20269;-76
2023/06/29 09:13:09;;;;;;;13.75;6.30;;;25.30;36.90;;;;;;6183974;23;20004;-76
2023/06/29 09:15:43;;;;;;;20.42;5.75;;;25.40;36.30;;;;;;6185543;23;20047;-77
2023/06/29 09:18:23;;;;;;;15.52;5.40;;;25.40;36.00;;;;;;6185606;23;20000;-76
2023/06/29 09:20:59;;;;;;;15.15;4.32;;;25.50;35.90;;;;;;6159025;23;20008;-76
2023/06/29 09:24:02;;;;;;;8.68;3.95;;;25.60;36.30;;;;;;6186060;23;20000;-76
2023/06/29 09:26:33;;;;;;;8.93;3.42;;;25.60;37.00;;;;;;6153473;23;20455;-76
2023/06/29 09:29:04;;;;;;;10.95;2.78;;;25.70;35.80;;;;;;6159164;23;20027;-76
2023/06/29 09:31:37;;;;;;;10.38;3.33;;;25.80;36.70;;;;;;6159128;23;20005;-75
2023/06/29 09:34:19;;;;;;;6.13;2.58;;;25.90;36.80;;;;;;6158800;23;20084;-76
2023/06/29 09:36:51;;;;;;;5.28;2.80;;;26.00;36.50;;;;;;6184722;23;20000;-76
2023/06/29 09:39:20;;;;;;;8.30;3.20;;;26.00;35.40;;;;;;6158404;23;20013;-75
2023/06/29 09:41:56;;;;;;;8.32;3.80;;;26.10;35.90;;;;;;6185025;23;20025;-76
2023/06/29 09:44:28;;;;;;;8.65;3.58;;;26.10;34.30;;;;;;6158415;23;19997;-76
2023/06/29 09:47:09;;;;;;;4.20;2.83;;;26.10;34.60;;;;;;6158754;23;19993;-76
2023/06/29 09:49:47;;;;;;;5.97;3.00;;;26.20;35.10;;;;;;6158779;23;19997;-75
2023/06/29 09:52:21;;;;;;;8.98;3.40;;;26.20;35.00;;;;;;6185033;23;20028;-76
2023/06/29 09:55:13;;;;;;;9.57;3.15;;;26.30;34.60;;;;;;6182549;23;20068;-76
2023/06/29 09:57:42;;;;;;;8.93;2.55;;;26.30;33.30;;;;;;6184667;23;19997;-76
2023/06/29 10:00:13;;;;;;;7.68;2.95;;;26.40;34.20;;;;;;6158585;23;20092;-76
2023/06/29 10:02:45;;;;;;;3.85;2.00;;;26.50;34.30;;;;;;6158511;23;20327;-76
2023/06/29 10:05:11;;;;;;;5.50;2.20;;;26.60;34.00;;;;;;6184528;23;20431;-75
2023/06/29 10:07:42;;;;;;;5.65;2.30;;;26.60;34.60;;;;;;6184476;23;20047;-75
2023/06/29 10:10:14;;;;;;;4.35;1.85;;;26.70;34.50;;;;;;6184862;23;20005;-75
2023/06/29 10:12:49;;;;;;;7.38;2.13;;;26.80;33.60;;;;;;6158209;23;20084;-75
2023/06/29 10:15:24;;;;;;;3.95;2.00;;;26.80;33.10;;;;;;6183765;23;20303;-75
2023/06/29 10:18:01;;;;;;;4.82;1.70;;;26.90;33.10;;;;;;6157329;23;20349;-75
2023/06/29 10:20:33;;;;;;;4.15;2.05;;;27.00;32.90;;;;;;6184174;23;19993;-75
2023/06/29 10:23:06;;;;;;;3.67;2.13;;;27.00;32.40;;;;;;6158318;23;20020;-75
2023/06/29 10:25:43;;;;;;;2.97;2.00;;;27.10;32.20;;;;;;6183231;23;20028;-75
2023/06/29 10:28:13;;;;;;;9.23;3.35;;;27.10;32.60;;;;;;6184398;23;19997;-75
2023/06/29 10:30:47;;;;;;;4.95;2.50;;;27.10;31.40;;;;;;6184562;23;20011;-76
2023/06/29 10:33:20;;;;;;;6.43;2.75;;;27.20;31.90;;;;;;6157929;23;20001;-76
2023/06/29 10:36:01;;;;;;;7.28;3.00;;;27.20;31.10;;;;;;6184429;23;19997;-73
2023/06/29 10:38:34;;;;;;;4.55;2.25;;;27.20;31.30;;;;;;6184795;23;20026;-75
2023/06/29 10:41:29;;;;;;;4.28;2.30;;;27.20;30.00;;;;;;6184494;23;20005;-75
2023/06/29 10:44:05;;;;;;;4.10;2.42;;;27.20;30.30;;;;;;6184437;23;20417;-75
2023/06/29 10:46:49;;;;;;;9.15;3.08;;;27.20;29.80;;;;;;6184597;23;20341;-75
2023/06/29 10:49:26;;;;;;;5.68;2.47;;;27.20;29.70;;;;;;6184363;23;20390;-72
2023/06/29 10:52:04;;;;;;;5.80;2.67;;;27.30;29.50;;;;;;6184376;23;20305;-74
2023/06/29 10:54:30;;;;;;;3.63;1.85;;;27.30;29.10;;;;;;6184374;23;20004;-75
2023/06/29 10:57:10;;;;;;;7.50;2.53;;;27.40;29.80;;;;;;6157771;23;20028;-75
2023/06/29 10:59:41;;;;;;;6.28;2.45;;;27.40;29.60;;;;;;6183957;23;20105;-75
2023/06/29 11:02:17;;;;;;;5.35;1.95;;;27.50;28.40;;;;;;6158046;23;20000;-74
2023/06/29 11:04:48;;;;;;;6.82;2.72;;;27.50;28.70;;;;;;6184614;23;20000;-73
2023/06/29 11:07:21;;;;;;;5.07;2.33;;;27.60;29.30;;;;;;6157593;23;19997;-74
2023/06/29 11:10:02;;;;;;;4.68;2.50;;;27.60;27.80;;;;;;6184743;23;20068;-74
2023/06/29 11:12:35;;;;;;;4.57;2.22;;;27.70;28.50;;;;;;6184960;23;20075;-73
2023/06/29 11:15:12;;;;;;;4.97;2.60;;;27.80;28.20;;;;;;6158691;23;20061;-74
2023/06/29 11:17:44;;;;;;;6.75;2.50;;;27.80;27.60;;;;;;6184779;23;20001;-74
2023/06/29 11:20:20;;;;;;;4.50;2.30;;;27.90;27.60;;;;;;6184733;23;20457;-74
2023/06/29 11:22:46;;;;;;;5.82;2.30;;;27.90;27.10;;;;;;6184516;23;19994;-73
2023/06/29 11:25:16;;;;;;;5.47;2.20;;;27.90;26.20;;;;;;6184648;23;20286;-75
2023/06/29 11:27:47;;;;;;;6.10;1.55;;;27.90;26.40;;;;;;6184456;23;20044;-74
2023/06/29 11:30:22;;;;;;;6.22;1.98;;;27.90;25.40;;;;;;6158321;23;20008;-74
2023/06/29 11:32:54;;;;;;;2.63;1.83;;;27.90;26.00;;;;;;6158502;23;20005;-73
2023/06/29 11:35:25;;;;;;;4.82;2.10;;;27.90;26.30;;;;;;6184559;23;19994;-75
2023/06/29 11:38:00;;;;;;;3.63;2.00;;;27.90;25.70;;;;;;6184318;23;20064;-74
2023/06/29 11:40:26;;;;;;;3.78;2.10;;;28.00;25.50;;;;;;6184911;23;19997;-74
2023/06/29 11:42:57;;;;;;;2.47;1.73;;;28.00;25.60;;;;;;6158294;23;20306;-73
2023/06/29 11:45:31;;;;;;;2.58;1.52;;;28.00;25.80;;;;;;6184624;23;19997;-74
2023/06/29 11:48:02;;;;;;;5.68;2.17;;;28.10;26.00;;;;;;6184848;23;19993;-74
2023/06/29 11:50:32;;;;;;;4.15;1.92;;;28.10;25.80;;;;;;6184541;23;20068;-73
2023/06/29 11:53:03;;;;;;;9.65;2.40;;;28.10;26.60;;;;;;6158289;23;20001;-74
2023/06/29 11:55:34;;;;;;;5.00;2.45;;;28.20;26.00;;;;;;6184144;23;20005;-73
2023/06/29 11:58:05;;;;;;;4.93;2.22;;;28.20;25.20;;;;;;6184255;23;20084;-75
2023/06/29 12:00:36;;;;;;;11.05;2.35;;;28.20;25.10;;;;;;6158000;23;20004;-74
2023/06/29 12:03:07;;;;;;;2.72;1.95;;;28.30;25.30;;;;;;6158029;23;20044;-75
2023/06/29 12:05:42;;;;;;;8.25;3.17;;;28.30;25.90;;;;;;6158115;23;20004;-75
2023/06/29 12:08:28;;;;;;;10.48;4.35;;;28.40;25.40;;;;;;6159748;23;20421;-74
2023/06/29 12:11:03;;;;;;;7.30;3.78;;;28.40;25.60;;;;;;6158568;23;20060;-75
2023/06/29 12:13:34;;;;;;;13.50;4.03;;;28.40;26.00;;;;;;6159807;23;20091;-74
2023/06/29 12:16:03;;;;;;;9.88;3.50;;;28.40;25.60;;;;;;6186244;23;20068;-74
2023/06/29 12:18:36;;;;;;;9.45;3.50;;;28.40;25.40;;;;;;6185519;23;20001;-74
2023/06/29 12:21:07;;;;;;;6.57;3.22;;;28.40;25.50;;;;;;6185804;23;20438;-76
2023/06/29 12:23:38;;;;;;;11.63;3.58;;;28.40;25.30;;;;;;6185973;23;20043;-74
2023/06/29 12:26:23;;;;;;;10.43;3.45;;;28.40;26.00;;;;;;6159973;23;20024;-74
2023/06/29 12:28:57;;;;;;;5.72;2.63;;;28.40;26.50;;;;;;6159075;23;20092;-75
2023/06/29 12:31:40;;;;;;;6.57;2.95;;;28.50;27.50;;;;;;6160050;23;20008;-74
2023/06/29 12:34:08;;;;;;;5.60;2.75;;;28.60;26.50;;;;;;6186047;23;19997;-75
2023/06/29 12:36:39;;;;;;;9.65;3.00;;;28.70;26.30;;;;;;6186366;23;20043;-75
2023/06/29 12:39:05;;;;;;;4.75;2.50;;;28.70;26.00;;;;;;6159484;23;20005;-75
2023/06/29 12:41:36;;;;;;;9.18;2.70;;;28.90;26.70;;;;;;6159881;23;20048;-73
2023/06/29 12:44:07;;;;;;;6.88;2.55;;;28.90;26.70;;;;;;6185606;23;20413;-74
2023/06/29 12:46:38;;;;;;;3.80;2.50;;;29.00;26.50;;;;;;6160098;23;20080;-74
2023/06/29 12:49:09;;;;;;;4.82;2.40;;;29.10;26.30;;;;;;6186399;23;20072;-74
2023/06/29 12:51:43;;;;;;;6.20;2.90;;;29.20;26.70;;;;;;6159721;23;19997;-74
2023/06/29 12:54:14;;;;;;;7.45;2.45;;;29.20;26.40;;;;;;6159585;23;20015;-74
2023/06/29 12:56:47;;;;;;;5.40;2.88;;;29.30;26.90;;;;;;6185594;23;20340;-74
2023/06/29 12:59:18;;;;;;;5.85;2.20;;;29.30;26.00;;;;;;6159509;23;19994;-74
2023/06/29 13:01:49;;;;;;;6.38;2.60;;;29.40;25.50;;;;;;6185943;23;20004;-74
2023/06/29 13:04:23;;;;;;;5.07;2.30;;;29.40;25.00;;;;;;6185528;23;19993;-74
2023/06/29 13:06:56;;;;;;;5.20;2.67;;;29.50;25.10;;;;;;6185344;23;20417;-74
2023/06/29 13:09:28;;;;;;;4.03;2.53;;;29.50;24.90;;;;;;6159520;23;20401;-75
2023/06/29 13:11:59;;;;;;;4.97;2.50;;;29.50;25.10;;;;;;6159317;23;20310;-74
2023/06/29 13:14:41;;;;;;;6.18;2.50;;;29.60;25.00;;;;;;6185357;23;20437;-74